createdAt,value
2022-11-21T00:00:54.183Z,-0.21
2022-11-21T00:01:54.225Z,-0.25
2022-11-21T00:02:54.199Z,-0.28
2022-11-21T00:03:54.207Z,-0.26
2022-11-21T00:04:54.204Z,-0.31
2022-11-21T00:05:54.206Z,-0.21
2022-11-21T00:06:54.215Z,-0.19
2022-11-21T00:07:54.205Z,-0.26
2022-11-21T00:08:54.210Z,-0.33
2022-11-21T00:09:54.213Z,-0.26
2022-11-21T00:10:54.215Z,-0.28
2022-11-21T00:11:54.221Z,-0.34
2022-11-21T00:12:54.218Z,-0.39
2022-11-21T00:13:54.226Z,-0.25
2022-11-21T00:14:54.225Z,-0.36
2022-11-21T00:15:54.232Z,-0.46
2022-11-21T00:16:57.353Z,-0.29
2022-11-21T00:17:54.239Z,-0.39
2022-11-21T00:18:54.238Z,-0.37
2022-11-21T00:19:54.242Z,-0.31
2022-11-21T00:20:54.249Z,-0.43
2022-11-21T00:21:54.253Z,-0.40
2022-11-21T00:22:54.263Z,-0.33
2022-11-21T00:23:54.261Z,-0.43
2022-11-21T00:24:54.529Z,-0.29
2022-11-21T00:25:54.261Z,-0.29
2022-11-21T00:26:54.263Z,-0.36
2022-11-21T00:27:54.269Z,-0.33
2022-11-21T00:28:54.268Z,-0.25
2022-11-21T00:29:54.285Z,-0.34
2022-11-21T00:30:54.275Z,-0.39
2022-11-21T00:31:54.282Z,-0.40
2022-11-21T00:32:54.282Z,-0.39
2022-11-21T00:33:54.289Z,-0.36
2022-11-21T00:34:54.299Z,-0.46
2022-11-21T00:35:54.296Z,-0.36
2022-11-21T00:36:54.294Z,-0.40
2022-11-21T00:37:54.307Z,-0.36
2022-11-21T00:38:54.301Z,-0.36
2022-11-21T00:39:54.310Z,-0.40
2022-11-21T00:40:54.306Z,-0.42
2022-11-21T00:41:54.322Z,-0.28
2022-11-21T00:42:54.314Z,-0.37
2022-11-21T00:43:54.319Z,-0.43
2022-11-21T00:44:54.319Z,-0.34
2022-11-21T00:45:54.328Z,-0.43
2022-11-21T00:46:54.326Z,-0.40
2022-11-21T00:47:54.332Z,-0.37
2022-11-21T00:48:54.330Z,-0.40
2022-11-21T00:49:54.343Z,-0.37
2022-11-21T00:50:54.342Z,-0.39
2022-11-21T00:51:54.347Z,-0.36
2022-11-21T00:52:54.346Z,-0.37
2022-11-21T00:53:54.350Z,-0.42
2022-11-21T00:54:54.350Z,-0.43
2022-11-21T00:55:54.355Z,-0.36
2022-11-21T00:56:54.356Z,-0.40
2022-11-21T00:57:54.370Z,-0.34
2022-11-21T00:58:54.361Z,-0.37
2022-11-21T00:59:54.368Z,-0.42
2022-11-21T01:00:54.405Z,-0.43
2022-11-21T01:01:54.374Z,-0.37
2022-11-21T01:02:54.374Z,-0.36
2022-11-21T01:03:54.379Z,-0.42
2022-11-21T01:04:54.379Z,-0.29
2022-11-21T01:05:54.395Z,-0.40
2022-11-21T01:06:54.384Z,-0.43
2022-11-21T01:07:54.389Z,-0.29
2022-11-21T01:08:54.394Z,-0.33
2022-11-21T01:09:54.399Z,-0.34
2022-11-21T01:10:54.407Z,-0.36
2022-11-21T01:11:54.404Z,-0.37
2022-11-21T01:12:54.425Z,-0.26
2022-11-21T01:13:54.412Z,-0.33
2022-11-21T01:14:54.412Z,-0.33
2022-11-21T01:15:54.416Z,-0.43
2022-11-21T01:16:54.417Z,-0.39
2022-11-21T01:17:54.424Z,-0.37
2022-11-21T01:18:54.422Z,-0.34
2022-11-21T01:19:54.429Z,-0.34
2022-11-21T01:20:54.442Z,-0.36
2022-11-21T01:21:54.460Z,-0.37
2022-11-21T01:22:54.432Z,-0.39
2022-11-21T01:23:54.444Z,-0.36
2022-11-21T01:24:54.440Z,-0.36
2022-11-21T01:25:54.445Z,-0.36
2022-11-21T01:26:54.448Z,-0.37
2022-11-21T01:27:54.551Z,-0.28
2022-11-21T01:28:54.472Z,-0.37
2022-11-21T01:29:54.459Z,-0.40
2022-11-21T01:30:54.458Z,-0.31
2022-11-21T01:31:54.466Z,-0.34
2022-11-21T01:32:54.470Z,-0.29
2022-11-21T01:33:54.471Z,-0.34
2022-11-21T01:34:54.471Z,-0.34
2022-11-21T01:35:54.475Z,-0.42
2022-11-21T01:36:54.478Z,-0.36
2022-11-21T01:37:54.485Z,-0.37
2022-11-21T01:38:54.484Z,-0.39
2022-11-21T01:39:54.489Z,-0.39
2022-11-21T01:40:54.489Z,-0.39
2022-11-21T01:41:54.498Z,-0.39
2022-11-21T01:42:54.499Z,-0.33
2022-11-21T01:43:54.503Z,-0.33
2022-11-21T01:44:54.549Z,-0.34
2022-11-21T01:45:54.508Z,-0.36
2022-11-21T01:46:54.513Z,-0.34
2022-11-21T01:47:54.516Z,-0.36
2022-11-21T01:48:54.514Z,-0.29
2022-11-21T01:49:54.519Z,-0.33
2022-11-21T01:50:54.532Z,-0.28
2022-11-21T01:51:54.525Z,-0.29
2022-11-21T01:52:54.591Z,-0.31
2022-11-21T01:53:54.533Z,-0.31
2022-11-21T01:54:54.533Z,-0.26
2022-11-21T01:55:54.552Z,-0.31
2022-11-21T01:56:54.546Z,-0.31
2022-11-21T01:57:54.556Z,-0.28
2022-11-21T01:58:54.546Z,-0.28
2022-11-21T01:59:54.554Z,-0.29
2022-11-21T02:00:54.604Z,-0.29
2022-11-21T02:01:54.560Z,-0.28
2022-11-21T02:02:54.567Z,-0.23
2022-11-21T02:03:54.583Z,-0.26
2022-11-21T02:04:54.566Z,-0.25
2022-11-21T02:05:54.574Z,-0.29
2022-11-21T02:06:54.575Z,-0.31
2022-11-21T02:07:54.583Z,-0.33
2022-11-21T02:08:54.595Z,-0.33
2022-11-21T02:09:54.585Z,-0.26
2022-11-21T02:10:54.586Z,-0.28
2022-11-21T02:11:54.602Z,-0.21
2022-11-21T02:12:54.600Z,-0.23
2022-11-21T02:13:54.601Z,-0.21
2022-11-21T02:14:54.602Z,-0.21
2022-11-21T02:15:54.608Z,-0.18
2022-11-21T02:16:54.626Z,-0.10
2022-11-21T02:17:54.613Z,-0.10
2022-11-21T02:18:54.624Z,-0.05
2022-11-21T02:19:54.621Z,-0.10
2022-11-21T02:20:54.619Z,-0.01
2022-11-21T02:21:54.627Z,-0.07
2022-11-21T02:22:54.627Z,-0.04
2022-11-21T02:23:59.132Z,-0.05
2022-11-21T02:24:54.633Z,-0.05
2022-11-21T02:25:54.644Z,-0.04
2022-11-21T02:26:54.641Z,-0.14
2022-11-21T02:27:54.649Z,0.00
2022-11-21T02:28:54.651Z,-0.01
2022-11-21T02:29:54.654Z,-0.04
2022-11-21T02:30:54.656Z,-0.01
2022-11-21T02:31:54.659Z,-0.03
2022-11-21T02:32:54.686Z,-0.04
2022-11-21T02:33:54.677Z,0.07
2022-11-21T02:34:54.669Z,-0.01
2022-11-21T02:35:54.677Z,0.00
2022-11-21T02:36:54.677Z,0.03
2022-11-21T02:37:54.682Z,0.02
2022-11-21T02:38:54.686Z,0.00
2022-11-21T02:39:54.691Z,0.00
2022-11-21T02:40:54.690Z,0.03
2022-11-21T02:41:54.699Z,0.07
2022-11-21T02:42:54.699Z,0.00
2022-11-21T02:43:54.729Z,0.03
2022-11-21T02:44:54.704Z,0.03
2022-11-21T02:45:54.714Z,-0.03
2022-11-21T02:46:54.713Z,0.00
2022-11-21T02:47:58.048Z,-0.04
2022-11-21T02:48:54.738Z,0.02
2022-11-21T02:49:54.727Z,0.04
2022-11-21T02:50:54.727Z,0.02
2022-11-21T02:51:54.735Z,0.07
2022-11-21T02:52:54.734Z,0.08
2022-11-21T02:53:54.747Z,0.02
2022-11-21T02:54:54.743Z,0.04
2022-11-21T02:55:54.750Z,0.02
2022-11-21T02:56:54.748Z,0.04
2022-11-21T02:57:54.757Z,0.04
2022-11-21T02:58:54.757Z,0.03
2022-11-21T02:59:54.761Z,0.04
2022-11-21T03:00:54.824Z,0.07
2022-11-21T03:01:54.802Z,-0.01
2022-11-21T03:02:54.769Z,0.04
2022-11-21T03:03:54.782Z,0.03
2022-11-21T03:04:54.803Z,0.02
2022-11-21T03:05:54.784Z,0.02
2022-11-21T03:06:54.782Z,0.03
2022-11-21T03:07:54.787Z,0.04
2022-11-21T03:08:54.788Z,0.02
2022-11-21T03:09:54.796Z,0.02
2022-11-21T03:10:54.796Z,-0.07
2022-11-21T03:11:54.802Z,-0.03
2022-11-21T03:12:54.814Z,-0.05
2022-11-21T03:13:54.810Z,-0.05
2022-11-21T03:14:54.808Z,-0.03
2022-11-21T03:15:54.818Z,-0.11
2022-11-21T03:16:54.818Z,-0.04
2022-11-21T03:17:54.824Z,-0.10
2022-11-21T03:18:54.825Z,-0.05
2022-11-21T03:19:54.828Z,-0.01
2022-11-21T03:20:54.851Z,-0.03
2022-11-21T03:21:54.838Z,-0.07
2022-11-21T03:22:54.842Z,-0.08
2022-11-21T03:23:54.846Z,-0.05
2022-11-21T03:24:54.848Z,-0.04
2022-11-21T03:25:54.854Z,0.02
2022-11-21T03:26:54.852Z,0.03
2022-11-21T03:27:54.859Z,0.04
2022-11-21T03:28:54.865Z,0.04
2022-11-21T03:29:54.867Z,0.03
2022-11-21T03:30:54.868Z,0.02
2022-11-21T03:31:54.873Z,0.10
2022-11-21T03:32:54.872Z,0.03
2022-11-21T03:33:54.883Z,0.00
2022-11-21T03:34:54.883Z,0.03
2022-11-21T03:35:54.887Z,0.00
2022-11-21T03:36:54.908Z,0.02
2022-11-21T03:37:54.893Z,0.08
2022-11-21T03:38:54.892Z,0.00
2022-11-21T03:39:54.899Z,-0.04
2022-11-21T03:40:54.900Z,0.03
2022-11-21T03:41:54.918Z,0.00
2022-11-21T03:42:54.906Z,-0.04
2022-11-21T03:43:54.914Z,0.00
2022-11-21T03:44:54.912Z,0.02
2022-11-21T03:45:54.919Z,0.02
2022-11-21T03:46:55.022Z,-0.01
2022-11-21T03:47:54.927Z,0.04
2022-11-21T03:48:54.928Z,0.03
2022-11-21T03:49:54.936Z,0.00
2022-11-21T03:50:54.936Z,0.02
2022-11-21T03:51:54.937Z,0.07
2022-11-21T03:52:54.956Z,0.02
2022-11-21T03:53:54.950Z,0.03
2022-11-21T03:54:54.947Z,0.20
2022-11-21T03:55:54.957Z,0.18
2022-11-21T03:56:54.965Z,0.20
2022-11-21T03:57:54.967Z,0.17
2022-11-21T03:58:54.961Z,0.20
2022-11-21T03:59:54.965Z,0.18
2022-11-21T04:00:54.966Z,0.14
2022-11-21T04:01:54.994Z,0.18
2022-11-21T04:02:54.972Z,0.13
2022-11-21T04:03:54.980Z,0.14
2022-11-21T04:04:54.978Z,0.14
2022-11-21T04:05:54.986Z,0.15
2022-11-21T04:06:54.985Z,0.18
2022-11-21T04:07:54.991Z,0.13
2022-11-21T04:08:55.009Z,0.11
2022-11-21T04:09:54.999Z,0.17
2022-11-21T04:10:55.000Z,0.23
2022-11-21T04:11:55.005Z,0.10
2022-11-21T04:12:55.006Z,0.17
2022-11-21T04:13:55.012Z,0.11
2022-11-21T04:14:55.012Z,0.15
2022-11-21T04:15:55.018Z,0.21
2022-11-21T04:16:55.022Z,0.17
2022-11-21T04:17:55.028Z,0.13
2022-11-21T04:18:55.028Z,0.18
2022-11-21T04:19:55.044Z,0.15
2022-11-21T04:20:55.032Z,0.14
2022-11-21T04:21:55.044Z,0.18
2022-11-21T04:22:55.040Z,0.15
2022-11-21T04:23:55.057Z,0.26
2022-11-21T04:24:55.069Z,0.26
2022-11-21T04:25:55.054Z,0.26
2022-11-21T04:26:55.059Z,0.26
2022-11-21T04:27:55.059Z,0.23
2022-11-21T04:28:55.065Z,0.08
2022-11-21T04:29:55.071Z,0.17
2022-11-21T04:30:56.159Z,0.21
2022-11-21T04:31:55.074Z,0.20
2022-11-21T04:32:55.183Z,0.15
2022-11-21T04:33:55.082Z,0.29
2022-11-21T04:34:55.087Z,0.28
2022-11-21T04:35:55.088Z,0.26
2022-11-21T04:36:55.142Z,0.28
2022-11-21T04:37:55.098Z,0.28
2022-11-21T04:38:55.205Z,0.23
2022-11-21T04:39:55.102Z,0.15
2022-11-21T04:40:55.129Z,0.14
2022-11-21T04:41:55.111Z,0.14
2022-11-21T04:42:55.142Z,0.15
2022-11-21T04:43:55.117Z,0.13
2022-11-21T04:44:55.125Z,0.18
2022-11-21T04:45:55.125Z,0.13
2022-11-21T04:46:55.134Z,0.23
2022-11-21T04:47:55.132Z,0.14
2022-11-21T04:48:55.136Z,0.23
2022-11-21T04:49:55.148Z,0.14
2022-11-21T04:50:55.151Z,0.13
2022-11-21T04:51:55.159Z,0.17
2022-11-21T04:52:55.154Z,0.08
2022-11-21T04:53:55.160Z,0.10
2022-11-21T04:54:55.162Z,0.14
2022-11-21T04:55:55.162Z,0.00
2022-11-21T04:56:55.191Z,0.08
2022-11-21T04:57:55.173Z,0.07
2022-11-21T04:58:55.178Z,0.04
2022-11-21T04:59:55.180Z,0.00
2022-11-21T05:00:55.251Z,0.04
2022-11-21T05:01:55.190Z,0.02
2022-11-21T05:02:55.193Z,-0.04
2022-11-21T05:03:55.192Z,-0.05
2022-11-21T05:04:55.201Z,-0.10
2022-11-21T05:05:55.201Z,0.07
2022-11-21T05:06:55.209Z,0.02
2022-11-21T05:07:55.209Z,-0.08
2022-11-21T05:08:55.215Z,-0.08
2022-11-21T05:09:55.227Z,-0.07
2022-11-21T05:10:55.223Z,-0.15
2022-11-21T05:11:55.231Z,-0.11
2022-11-21T05:12:55.249Z,-0.14
2022-11-21T05:13:55.233Z,-0.05
2022-11-21T05:14:55.240Z,-0.10
2022-11-21T05:15:55.340Z,-0.19
2022-11-21T05:16:55.244Z,-0.19
2022-11-21T05:17:55.244Z,-0.23
2022-11-21T05:18:55.252Z,-0.18
2022-11-21T05:19:55.252Z,-0.16
2022-11-21T05:20:55.260Z,-0.22
2022-11-21T05:21:55.261Z,-0.18
2022-11-21T05:22:55.269Z,-0.19
2022-11-21T05:23:55.280Z,-0.26
2022-11-21T05:24:55.311Z,-0.25
2022-11-21T05:25:55.275Z,-0.26
2022-11-21T05:26:55.291Z,-0.29
2022-11-21T05:27:55.282Z,-0.26
2022-11-21T05:28:55.309Z,-0.31
2022-11-21T05:29:55.292Z,-0.33
2022-11-21T05:30:55.299Z,-0.25
2022-11-21T05:31:55.297Z,-0.39
2022-11-21T05:32:55.304Z,-0.42
2022-11-21T05:33:55.305Z,-0.29
2022-11-21T05:34:55.315Z,-0.40
2022-11-21T05:35:55.314Z,-0.36
2022-11-21T05:36:55.320Z,-0.39
2022-11-21T05:37:55.320Z,-0.42
2022-11-21T05:38:55.331Z,-0.49
2022-11-21T05:39:55.327Z,-0.51
2022-11-21T05:40:55.336Z,-0.51
2022-11-21T05:41:59.925Z,-0.47
2022-11-21T05:42:55.343Z,-0.51
2022-11-21T05:43:55.343Z,-0.49
2022-11-21T05:44:55.367Z,-0.52
2022-11-21T05:45:55.349Z,-0.51
2022-11-21T05:46:55.371Z,-0.54
2022-11-21T05:47:55.368Z,-0.51
2022-11-21T05:48:55.366Z,-0.52
2022-11-21T05:49:55.372Z,-0.58
2022-11-21T05:50:55.370Z,-0.64
2022-11-21T05:51:55.374Z,-0.62
2022-11-21T05:52:55.386Z,-0.70
2022-11-21T05:53:55.378Z,-0.72
2022-11-21T05:54:55.395Z,-0.86
2022-11-21T05:55:55.387Z,-0.80
2022-11-21T05:56:55.396Z,-0.78
2022-11-21T05:57:55.394Z,-0.85
2022-11-21T05:58:55.408Z,-0.83
2022-11-21T05:59:55.420Z,-0.83
2022-11-21T06:00:59.558Z,-0.99
2022-11-21T06:01:55.407Z,-0.86
2022-11-21T06:02:55.449Z,-0.97
2022-11-21T06:03:55.413Z,-0.94
2022-11-21T06:04:55.420Z,-0.92
2022-11-21T06:05:55.421Z,-0.91
2022-11-21T06:06:55.427Z,-0.92
2022-11-21T06:07:55.428Z,-0.95
2022-11-21T06:08:55.435Z,-0.92
2022-11-21T06:09:55.439Z,-0.92
2022-11-21T06:10:55.441Z,-0.97
2022-11-21T06:11:55.441Z,-0.94
2022-11-21T06:12:55.449Z,-0.95
2022-11-21T06:13:55.449Z,-0.94
2022-11-21T06:14:55.458Z,-0.92
2022-11-21T06:15:55.453Z,-0.95
2022-11-21T06:16:55.476Z,-0.94
2022-11-21T06:17:55.470Z,-0.95
2022-11-21T06:18:58.683Z,-0.91
2022-11-21T06:19:55.468Z,-0.91
2022-11-21T06:20:55.475Z,-0.94
2022-11-21T06:21:55.473Z,-1.01
2022-11-21T06:22:55.481Z,-0.94
2022-11-21T06:23:55.479Z,-1.05
2022-11-21T06:24:55.485Z,-0.99
2022-11-21T06:25:55.487Z,-0.98
2022-11-21T06:26:55.495Z,-0.86
2022-11-21T06:27:55.492Z,-0.85
2022-11-21T06:28:55.497Z,-0.92
2022-11-21T06:29:55.502Z,-0.92
2022-11-21T06:30:55.514Z,-0.79
2022-11-21T06:31:55.506Z,-0.76
2022-11-21T06:32:55.620Z,-0.70
2022-11-21T06:33:55.509Z,-0.72
2022-11-21T06:34:55.516Z,-0.75
2022-11-21T06:35:55.517Z,-0.65
2022-11-21T06:36:55.525Z,-0.64
2022-11-21T06:37:55.523Z,-0.60
2022-11-21T06:38:55.535Z,-0.46
2022-11-21T06:39:55.529Z,-0.49
2022-11-21T06:40:55.537Z,-0.42
2022-11-21T06:41:55.535Z,-0.36
2022-11-21T06:42:55.550Z,-0.37
2022-11-21T06:43:55.542Z,-0.42
2022-11-21T06:44:55.551Z,-0.40
2022-11-21T06:45:55.560Z,-0.39
2022-11-21T06:46:55.552Z,-0.39
2022-11-21T06:47:55.556Z,-0.39
2022-11-21T06:48:55.596Z,-0.39
2022-11-21T06:49:55.564Z,-0.23
2022-11-21T06:50:55.570Z,-0.33
2022-11-21T06:51:55.668Z,-0.34
2022-11-21T06:52:55.572Z,-0.39
2022-11-21T06:53:55.574Z,-0.40
2022-11-21T06:54:55.580Z,-0.42
2022-11-21T06:55:55.581Z,-0.33
2022-11-21T06:56:55.615Z,-0.34
2022-11-21T06:57:55.587Z,-0.31
2022-11-21T06:58:55.591Z,-0.40
2022-11-21T06:59:55.596Z,-0.39
2022-11-21T07:00:55.678Z,-0.37
2022-11-21T07:01:55.599Z,-0.29
2022-11-21T07:03:00.104Z,-0.36
2022-11-21T07:03:55.611Z,-0.36
2022-11-21T07:04:55.655Z,-0.39
2022-11-21T07:05:55.612Z,-0.31
2022-11-21T07:06:55.622Z,-0.33
2022-11-21T07:07:55.619Z,-0.34
2022-11-21T07:09:55.628Z,-0.36
2022-11-21T07:11:22.911Z,-0.29
2022-11-21T07:11:55.634Z,-0.34
2022-11-21T07:12:55.640Z,-0.37
2022-11-21T07:13:55.639Z,-0.26
2022-11-21T07:14:55.644Z,-0.34
2022-11-21T07:15:55.646Z,-0.40
2022-11-21T07:16:55.655Z,-0.37
2022-11-21T07:17:55.653Z,-0.36
2022-11-21T07:18:55.660Z,-0.42
2022-11-21T07:19:55.659Z,-0.37
2022-11-21T07:20:55.686Z,-0.37
2022-11-21T07:21:55.668Z,-0.34
2022-11-21T07:22:55.675Z,-0.40
2022-11-21T07:23:55.678Z,-0.31
2022-11-21T07:24:55.684Z,-0.29
2022-11-21T07:25:55.681Z,-0.33
2022-11-21T07:26:55.691Z,-0.29
2022-11-21T07:27:55.692Z,-0.29
2022-11-21T07:28:55.696Z,-0.29
2022-11-21T07:29:55.699Z,-0.33
2022-11-21T07:30:55.706Z,-0.26
2022-11-21T07:31:55.714Z,-0.36
2022-11-21T07:32:55.712Z,-0.28
2022-11-21T07:33:55.714Z,-0.25
2022-11-21T07:34:55.719Z,-0.23
2022-11-21T07:35:55.721Z,-0.23
2022-11-21T07:36:55.745Z,-0.19
2022-11-21T07:37:55.732Z,-0.18
2022-11-21T07:38:55.737Z,-0.18
2022-11-21T07:39:55.738Z,-0.11
2022-11-21T07:40:55.744Z,-0.10
2022-11-21T07:41:55.744Z,-0.11
2022-11-21T07:42:55.848Z,-0.05
2022-11-21T07:43:55.758Z,-0.04
2022-11-21T07:44:55.771Z,-0.10
2022-11-21T07:45:55.758Z,-0.01
2022-11-21T07:46:55.777Z,0.02
2022-11-21T07:47:55.766Z,0.00
2022-11-21T07:48:58.327Z,-0.05
2022-11-21T07:49:55.772Z,0.00
2022-11-21T07:50:55.779Z,0.00
2022-11-21T07:51:55.778Z,0.03
2022-11-21T07:52:55.835Z,0.03
2022-11-21T07:53:55.787Z,0.03
2022-11-21T07:54:55.802Z,0.02
2022-11-21T07:55:55.796Z,0.15
2022-11-21T07:56:55.803Z,0.17
2022-11-21T07:57:55.804Z,0.20
2022-11-21T07:58:55.811Z,0.26
2022-11-21T07:59:55.810Z,0.26
2022-11-21T08:00:55.833Z,0.32
2022-11-21T08:01:55.846Z,0.35
2022-11-21T08:02:55.825Z,0.32
2022-11-21T08:03:55.830Z,0.42
2022-11-21T08:04:55.843Z,0.44
2022-11-21T08:05:55.848Z,0.50
2022-11-21T08:06:55.844Z,0.58
2022-11-21T08:07:55.840Z,0.69
2022-11-21T08:08:55.869Z,0.57
2022-11-21T08:09:55.848Z,0.73
2022-11-21T08:10:55.860Z,0.73
2022-11-21T08:11:55.860Z,0.80
2022-11-21T08:12:55.867Z,0.91
2022-11-21T08:13:55.866Z,0.91
2022-11-21T08:14:55.876Z,0.94
2022-11-21T08:15:55.875Z,1.06
2022-11-21T08:16:55.880Z,1.05
2022-11-21T08:17:55.885Z,0.91
2022-11-21T08:18:55.894Z,0.96
2022-11-21T08:19:55.895Z,1.04
2022-11-21T08:20:55.900Z,1.08
2022-11-21T08:21:55.903Z,1.04
2022-11-21T08:22:55.910Z,1.15
2022-11-21T08:23:55.911Z,1.16
2022-11-21T08:24:55.967Z,1.22
2022-11-21T08:25:55.920Z,1.29
2022-11-21T08:26:55.934Z,1.33
2022-11-21T08:27:55.929Z,1.41
2022-11-21T08:28:59.894Z,1.34
2022-11-21T08:29:55.940Z,1.32
2022-11-21T08:30:55.959Z,1.23
2022-11-21T08:31:55.948Z,1.34
2022-11-21T08:32:55.960Z,1.34
2022-11-21T08:33:55.957Z,1.40
2022-11-21T08:34:55.966Z,1.42
2022-11-21T08:35:55.968Z,1.37
2022-11-21T08:36:55.978Z,1.48
2022-11-21T08:37:55.997Z,1.40
2022-11-21T08:38:55.986Z,1.33
2022-11-21T08:39:55.986Z,1.40
2022-11-21T08:40:56.012Z,1.37
2022-11-21T08:41:55.999Z,1.48
2022-11-21T08:42:56.001Z,1.62
2022-11-21T08:43:56.010Z,1.66
2022-11-21T08:44:56.012Z,1.66
2022-11-21T08:45:56.019Z,1.73
2022-11-21T08:46:56.020Z,1.73
2022-11-21T08:47:56.030Z,1.65
2022-11-21T08:48:56.029Z,1.73
2022-11-21T08:49:56.041Z,2.07
2022-11-21T08:50:56.053Z,2.24
2022-11-21T08:51:56.046Z,2.34
2022-11-21T08:52:56.060Z,2.56
2022-11-21T08:53:56.059Z,2.49
2022-11-21T08:54:56.059Z,2.57
2022-11-21T08:56:00.115Z,2.59
2022-11-21T08:56:56.088Z,2.36
2022-11-21T08:57:56.079Z,2.60
2022-11-21T08:58:56.083Z,2.69
2022-11-21T08:59:56.088Z,2.82
2022-11-21T09:00:56.101Z,2.93
2022-11-21T09:01:56.154Z,2.99
2022-11-21T09:02:56.101Z,3.03
2022-11-21T09:03:56.114Z,3.05
2022-11-21T09:04:56.109Z,2.96
2022-11-21T09:05:56.124Z,3.11
2022-11-21T09:06:56.119Z,3.23
2022-11-21T09:07:56.132Z,3.32
2022-11-21T09:08:56.133Z,3.26
2022-11-21T09:09:56.143Z,3.40
2022-11-21T09:10:56.161Z,3.57
2022-11-21T09:11:56.151Z,3.55
2022-11-21T09:12:56.178Z,3.50
2022-11-21T09:13:56.162Z,3.18
2022-11-21T09:14:56.165Z,3.17
2022-11-21T09:15:56.172Z,3.42
2022-11-21T09:17:01.740Z,3.24
2022-11-21T09:17:56.213Z,3.23
2022-11-21T09:18:56.186Z,3.24
2022-11-21T09:19:56.231Z,3.10
2022-11-21T09:20:56.200Z,3.03
2022-11-21T09:21:56.213Z,2.78
2022-11-21T09:22:56.210Z,2.66
2022-11-21T09:23:56.219Z,2.64
2022-11-21T09:24:56.221Z,2.63
2022-11-21T09:25:56.229Z,2.75
2022-11-21T09:26:56.237Z,2.66
2022-11-21T09:27:56.240Z,2.67
2022-11-21T09:28:56.262Z,2.57
2022-11-21T09:29:56.254Z,2.75
2022-11-21T09:30:56.258Z,2.71
2022-11-21T09:31:56.266Z,2.95
2022-11-21T09:32:56.270Z,3.02
2022-11-21T09:33:56.276Z,3.26
2022-11-21T09:34:56.280Z,3.35
2022-11-21T09:35:56.293Z,3.48
2022-11-21T09:36:56.292Z,3.75
2022-11-21T09:37:56.301Z,4.05
2022-11-21T09:38:56.303Z,4.22
2022-11-21T09:39:56.314Z,4.47
2022-11-21T09:40:56.314Z,4.42
2022-11-21T09:41:56.327Z,4.26
2022-11-21T09:42:56.327Z,4.34
2022-11-21T09:43:56.356Z,4.34
2022-11-21T09:44:56.360Z,4.67
2022-11-21T09:45:56.352Z,4.89
2022-11-21T09:46:56.356Z,4.72
2022-11-21T09:47:56.362Z,4.82
2022-11-21T09:48:56.365Z,4.70
2022-11-21T09:49:56.373Z,5.00
2022-11-21T09:50:56.378Z,4.99
2022-11-21T09:51:56.390Z,5.13
2022-11-21T09:52:56.392Z,5.20
2022-11-21T09:53:56.401Z,5.07
2022-11-21T09:54:56.404Z,4.66
2022-11-21T09:55:56.414Z,4.44
2022-11-21T09:56:56.419Z,4.08
2022-11-21T09:57:56.429Z,4.33
2022-11-21T09:58:56.432Z,4.42
2022-11-21T09:59:56.441Z,4.82
2022-11-21T10:00:56.560Z,5.20
2022-11-21T10:01:56.478Z,5.15
2022-11-21T10:02:56.462Z,5.12
2022-11-21T10:03:56.471Z,5.03
2022-11-21T10:04:56.473Z,4.91
2022-11-21T10:05:56.481Z,4.73
2022-11-21T10:06:56.492Z,4.34
2022-11-21T10:07:56.497Z,4.33
2022-11-21T10:08:56.500Z,4.41
2022-11-21T10:09:56.517Z,4.18
2022-11-21T10:10:56.519Z,4.23
2022-11-21T10:11:56.524Z,4.05
2022-11-21T10:12:56.534Z,3.94
2022-11-21T10:13:56.548Z,4.26
2022-11-21T10:14:56.543Z,4.33
2022-11-21T10:15:56.556Z,4.48
2022-11-21T10:16:57.025Z,4.51
2022-11-21T10:17:56.569Z,4.58
2022-11-21T10:18:56.574Z,4.32
2022-11-21T10:19:56.585Z,4.67
2022-11-21T10:20:56.587Z,4.66
2022-11-21T10:21:56.608Z,4.85
2022-11-21T10:22:56.602Z,4.70
2022-11-21T10:23:56.610Z,5.36
2022-11-21T10:24:56.619Z,5.36
2022-11-21T10:25:56.630Z,4.86
2022-11-21T10:26:56.631Z,5.00
2022-11-21T10:27:56.640Z,5.63
2022-11-21T10:28:56.649Z,5.35
2022-11-21T10:29:56.657Z,4.89
2022-11-21T10:30:56.685Z,5.17
2022-11-21T10:31:56.670Z,5.36
2022-11-21T10:32:56.700Z,4.82
2022-11-21T10:33:56.687Z,4.96
2022-11-21T10:34:56.695Z,4.85
2022-11-21T10:35:56.707Z,5.07
2022-11-21T10:36:56.712Z,4.66
2022-11-21T10:37:56.720Z,4.65
2022-11-21T10:38:56.720Z,4.97
2022-11-21T10:39:56.739Z,5.54
2022-11-21T10:40:56.743Z,5.10
2022-11-21T10:41:56.764Z,5.04
2022-11-21T10:42:56.765Z,5.40
2022-11-21T10:43:56.763Z,5.38
2022-11-21T10:44:56.788Z,5.02
2022-11-21T10:45:56.786Z,5.30
2022-11-21T10:46:56.789Z,5.33
2022-11-21T10:47:56.801Z,5.36
2022-11-21T10:48:56.816Z,5.35
2022-11-21T10:49:56.810Z,5.45
2022-11-21T10:50:56.814Z,5.56
2022-11-21T10:51:56.823Z,5.75
2022-11-21T10:52:56.833Z,5.61
2022-11-21T10:53:56.844Z,5.15
2022-11-21T10:54:56.849Z,5.27
2022-11-21T10:55:56.861Z,5.38
2022-11-21T10:56:56.862Z,5.21
2022-11-21T10:57:56.877Z,5.21
2022-11-21T10:58:56.877Z,5.74
2022-11-21T10:59:56.889Z,5.76
2022-11-21T11:00:57.042Z,5.71
2022-11-21T11:01:56.905Z,5.67
2022-11-21T11:02:56.914Z,5.71
2022-11-21T11:04:20.729Z,6.00
2022-11-21T11:04:57.479Z,5.71
2022-11-21T11:05:56.939Z,5.78
2022-11-21T11:06:56.945Z,5.91
2022-11-21T11:07:56.967Z,5.53
2022-11-21T11:08:56.961Z,5.07
2022-11-21T11:09:56.970Z,4.84
2022-11-21T11:10:56.976Z,5.09
2022-11-21T11:11:56.986Z,5.33
2022-11-21T11:12:56.998Z,5.30
2022-11-21T11:13:57.005Z,5.27
2022-11-21T11:14:57.007Z,5.40
2022-11-21T11:15:57.018Z,5.15
2022-11-21T11:16:57.025Z,5.36
2022-11-21T11:17:57.038Z,5.58
2022-11-21T11:18:57.107Z,5.61
2022-11-21T11:19:57.052Z,5.42
2022-11-21T11:20:58.115Z,5.53
2022-11-21T11:21:57.078Z,5.53
2022-11-21T11:22:57.081Z,5.60
2022-11-21T11:23:57.087Z,5.82
2022-11-21T11:25:00.518Z,5.79
2022-11-21T11:25:57.111Z,5.85
2022-11-21T11:26:57.116Z,5.71
2022-11-21T11:27:57.116Z,5.64
2022-11-21T11:28:57.171Z,5.68
2022-11-21T11:29:57.147Z,5.00
2022-11-21T11:30:57.140Z,4.73
2022-11-21T11:31:57.161Z,4.89
2022-11-21T11:32:57.155Z,4.69
2022-11-21T11:33:57.169Z,4.92
2022-11-21T11:34:57.173Z,4.67
2022-11-21T11:35:57.186Z,4.82
2022-11-21T11:36:57.210Z,4.86
2022-11-21T11:37:57.201Z,5.27
2022-11-21T11:38:57.244Z,5.35
2022-11-21T11:39:57.217Z,5.51
2022-11-21T11:40:57.959Z,5.56
2022-11-21T11:41:57.238Z,5.71
2022-11-21T11:42:57.238Z,5.78
2022-11-21T11:43:57.255Z,5.78
2022-11-21T11:44:57.258Z,5.85
2022-11-21T11:45:57.269Z,5.76
2022-11-21T11:46:57.273Z,5.65
2022-11-21T11:47:57.284Z,5.51
2022-11-21T11:49:19.148Z,5.63
2022-11-21T11:49:57.300Z,5.36
2022-11-21T11:50:57.946Z,4.85
2022-11-21T11:51:57.317Z,4.94
2022-11-21T11:52:57.348Z,4.69
2022-11-21T11:54:01.082Z,4.48
2022-11-21T11:54:57.340Z,4.65
2022-11-21T11:55:57.350Z,4.52
2022-11-21T11:56:57.359Z,4.65
2022-11-21T11:57:57.365Z,4.55
2022-11-21T11:58:57.374Z,4.55
2022-11-21T11:59:57.382Z,4.63
2022-11-21T12:00:57.390Z,4.92
2022-11-21T12:01:57.439Z,5.02
2022-11-21T12:02:57.405Z,5.17
2022-11-21T12:03:58.308Z,5.31
2022-11-21T12:04:57.420Z,5.13
2022-11-21T12:05:57.431Z,5.12
2022-11-21T12:08:05.822Z,5.03
2022-11-21T12:08:57.636Z,5.12
2022-11-21T12:09:57.477Z,5.31
2022-11-21T12:10:58.097Z,5.04
2022-11-21T12:11:57.480Z,5.24
2022-11-21T12:12:57.484Z,5.35
2022-11-21T12:13:57.506Z,5.35
2022-11-21T12:14:57.502Z,5.43
2022-11-21T12:16:04.023Z,5.79
2022-11-21T12:16:57.621Z,6.01
2022-11-21T12:17:57.532Z,6.03
2022-11-21T12:18:57.535Z,5.64
2022-11-21T12:19:57.545Z,5.68
2022-11-21T12:20:57.555Z,5.57
2022-11-21T12:21:57.568Z,5.75
2022-11-21T12:22:57.571Z,5.89
2022-11-21T12:23:57.596Z,5.82
2022-11-21T12:24:57.685Z,5.90
2022-11-21T12:25:57.635Z,5.67
2022-11-21T12:26:57.602Z,5.68
2022-11-21T12:27:57.613Z,5.61
2022-11-21T12:28:57.618Z,5.68
2022-11-21T12:29:57.639Z,5.64
2022-11-21T12:30:57.635Z,5.57
2022-11-21T12:31:57.647Z,5.48
2022-11-21T12:32:57.653Z,5.42
2022-11-21T12:33:57.663Z,5.39
2022-11-21T12:34:57.670Z,5.61
2022-11-21T12:36:09.230Z,5.43
2022-11-21T12:36:57.685Z,5.31
2022-11-21T12:37:57.696Z,5.28
2022-11-21T12:38:57.704Z,5.13
2022-11-21T12:39:57.716Z,5.27
2022-11-21T12:40:59.097Z,5.39
2022-11-21T12:41:57.736Z,5.49
2022-11-21T12:42:57.737Z,5.12
2022-11-21T12:43:57.996Z,5.03
2022-11-21T12:44:57.751Z,5.07
2022-11-21T12:45:57.764Z,5.18
2022-11-21T12:46:57.771Z,5.33
2022-11-21T12:47:57.779Z,5.33
2022-11-21T12:48:57.786Z,5.35
2022-11-21T12:49:57.798Z,5.54
2022-11-21T12:50:58.906Z,5.63
2022-11-21T12:51:57.815Z,5.68
2022-11-21T12:52:57.819Z,5.65
2022-11-21T12:53:57.842Z,5.79
2022-11-21T12:54:57.835Z,6.01
2022-11-21T12:55:57.849Z,6.01
2022-11-21T12:56:57.877Z,5.97
2022-11-21T12:57:57.863Z,5.99
2022-11-21T12:58:57.873Z,5.85
2022-11-21T12:59:57.877Z,5.71
2022-11-21T13:00:59.097Z,5.53
2022-11-21T13:01:58.019Z,5.33
2022-11-21T13:02:57.906Z,5.42
2022-11-21T13:03:57.915Z,5.35
2022-11-21T13:04:57.925Z,5.40
2022-11-21T13:05:57.928Z,5.43
2022-11-21T13:06:57.943Z,5.13
2022-11-21T13:07:57.953Z,5.09
2022-11-21T13:08:57.958Z,4.99
2022-11-21T13:09:57.966Z,5.07